Time;durP1;ratioP1;P1;durP2;ratioP2;P2;SDS_P1;SDS_P2;PMS_P1;PMS_P2;Temp;Humidity;BMP_temperature;BMP_pressure;BME280_temperature;BME280_humidity;BME280_pressure;Samples;Min_cycle;Max_cycle;Signal;HPM_P1;HPM_P2
2021/01/08 00:00:29;;;;;;;49.87;35.10;;;;;;;-0.96;96.54;95632.34;1041215;28;20099;-42
2021/01/08 00:00:59;;;;;;;45.23;33.73;;;;;;;-0.90;96.91;95636.16;1041249;28;20064;-42
2021/01/08 00:01:40;;;;;;;44.50;32.13;;;;;;;-0.85;96.09;95634.00;1041158;28;20037;-40
2021/01/08 00:02:11;;;;;;;50.83;35.55;;;;;;;-0.93;96.42;95631.25;1041027;28;20023;-42
2021/01/08 00:02:42;;;;;;;46.88;34.00;;;;;;;-0.92;96.53;95631.13;1041212;28;20355;-42
2021/01/08 00:03:12;;;;;;;47.73;34.67;;;;;;;-0.91;96.24;95635.34;1040708;28;20013;-41
2021/01/08 00:03:43;;;;;;;46.10;33.93;;;;;;;-0.94;96.20;95632.19;1041004;28;20417;-42
2021/01/08 00:04:13;;;;;;;45.03;33.13;;;;;;;-0.91;95.99;95635.34;1040596;28;20024;-42
2021/01/08 00:04:44;;;;;;;51.63;35.00;;;;;;;-0.85;96.11;95634.00;1040759;28;20368;-42
2021/01/08 00:05:14;;;;;;;49.20;35.27;;;;;;;-0.91;96.36;95627.59;1040632;28;20097;-41
2021/01/08 00:05:45;;;;;;;49.17;35.90;;;;;;;-0.93;96.77;95629.50;1040747;28;20010;-41
2021/01/08 00:06:19;;;;;;;49.40;34.87;;;;;;;-0.86;96.09;95631.56;1040857;28;20022;-41
2021/01/08 00:06:54;;;;;;;47.78;34.58;;;;;;;-0.83;95.53;95626.91;1041046;28;20009;-41
2021/01/08 00:07:24;;;;;;;46.50;32.35;;;;;;;-0.86;95.69;95634.94;1041024;28;20080;-41
2021/01/08 00:07:55;;;;;;;44.40;32.67;;;;;;;-0.85;96.06;95628.81;1041211;28;20032;-41
2021/01/08 00:08:25;;;;;;;46.40;33.73;;;;;;;-0.84;95.75;95635.59;1041003;28;20037;-42
2021/01/08 00:08:56;;;;;;;47.63;34.10;;;;;;;-0.86;95.93;95628.97;1040811;28;20052;-42
2021/01/08 00:09:26;;;;;;;43.83;31.83;;;;;;;-0.80;95.92;95631.81;1040963;28;20516;-42
2021/01/08 00:09:57;;;;;;;45.33;32.80;;;;;;;-0.86;95.31;95624.59;1041204;28;20354;-42
2021/01/08 00:10:29;;;;;;;44.60;32.47;;;;;;;-0.89;95.56;95622.28;1040972;28;20079;-42
2021/01/08 00:11:00;;;;;;;44.92;32.88;;;;;;;-0.85;95.65;95631.41;1041278;28;20017;-42
2021/01/08 00:11:34;;;;;;;49.65;35.03;;;;;;;-0.84;95.78;95632.22;1041112;28;20545;-41
2021/01/08 00:12:06;;;;;;;45.90;33.20;;;;;;;-0.82;95.71;95625.13;1041175;28;20487;-41
2021/01/08 00:12:36;;;;;;;47.13;34.63;;;;;;;-0.90;95.70;95628.41;1040751;28;20036;-41
2021/01/08 00:13:07;;;;;;;46.53;33.67;;;;;;;-0.91;95.88;95619.84;1040541;28;20029;-42
2021/01/08 00:13:37;;;;;;;49.03;34.70;;;;;;;-0.90;95.85;95625.81;1040740;28;20031;-41
2021/01/08 00:14:08;;;;;;;46.07;34.27;;;;;;;-0.90;95.96;95620.66;1036709;28;20026;-41
2021/01/08 00:14:38;;;;;;;49.77;35.17;;;;;;;-0.84;96.08;95629.63;1036620;28;20034;-42
2021/01/08 00:15:09;;;;;;;46.47;33.23;;;;;;;-0.86;95.88;95628.97;1040576;28;20362;-42
2021/01/08 00:15:40;;;;;;;48.00;32.47;;;;;;;-0.84;95.53;95630.44;1040703;28;20389;-41
2021/01/08 00:16:10;;;;;;;46.73;33.57;;;;;;;-0.88;95.14;95626.50;1040904;28;20036;-40
2021/01/08 00:16:41;;;;;;;44.70;34.07;;;;;;;-0.97;95.79;95628.13;1041205;28;20095;-41
2021/01/08 00:17:11;;;;;;;47.77;33.47;;;;;;;-0.95;96.21;95623.63;1041095;28;20036;-41
2021/01/08 00:17:42;;;;;;;43.83;32.47;;;;;;;-0.92;96.00;95622.56;1040619;28;20352;-40
2021/01/08 00:18:12;;;;;;;47.50;33.90;;;;;;;-0.89;95.63;95622.28;1040794;28;20048;-41
2021/01/08 00:18:46;;;;;;;48.80;35.30;;;;;;;-0.88;95.92;95630.84;1040837;28;20104;-43
2021/01/08 00:19:16;;;;;;;45.10;32.78;;;;;;;-0.87;95.83;95622.16;1037210;28;20366;-41
2021/01/08 00:19:47;;;;;;;43.93;31.80;;;;;;;-0.89;95.47;95624.88;1040799;28;20064;-42
2021/01/08 00:20:17;;;;;;;45.50;32.77;;;;;;;-0.92;95.58;95623.38;1040754;28;20024;-41
2021/01/08 00:20:48;;;;;;;44.63;32.83;;;;;;;-0.88;95.57;95623.94;1040692;28;20041;-41
2021/01/08 00:21:19;;;;;;;46.90;33.40;;;;;;;-0.87;95.29;95617.78;1032544;28;20018;-41
2021/01/08 00:21:49;;;;;;;44.47;32.60;;;;;;;-0.84;95.44;95627.84;1032728;28;20463;-48
2021/01/08 00:22:20;;;;;;;44.63;32.30;;;;;;;-0.84;95.48;95624.47;1033063;28;20101;-41
2021/01/08 00:22:52;;;;;;;45.88;31.95;;;;;;;-0.84;95.23;95629.63;1033142;28;20045;-41
2021/01/08 00:23:22;;;;;;;42.83;31.08;;;;;;;-0.85;95.24;95620.25;1040914;28;20030;-42
2021/01/08 00:23:53;;;;;;;46.03;33.90;;;;;;;-0.85;94.93;95628.81;1041129;28;20017;-41
2021/01/08 00:24:23;;;;;;;47.27;33.27;;;;;;;-0.88;95.62;95629.09;1041140;28;20017;-41
2021/01/08 00:24:54;;;;;;;46.87;32.80;;;;;;;-0.88;95.35;95626.50;1040970;28;20013;-42
2021/01/08 00:25:26;;;;;;;48.03;34.00;;;;;;;-0.88;95.47;95626.50;1041279;28;20456;-42
2021/01/08 00:25:56;;;;;;;45.75;33.42;;;;;;;-0.88;95.08;95625.69;1040907;28;20005;-42
2021/01/08 00:26:27;;;;;;;46.77;34.13;;;;;;;-0.84;95.21;95627.84;1041135;28;20017;-42
2021/01/08 00:27:02;;;;;;;44.60;33.10;;;;;;;-0.85;95.36;95628.81;1041181;28;20016;-41
2021/01/08 00:27:33;;;;;;;46.85;34.63;;;;;;;-0.92;95.29;95620.78;1041004;28;20025;-43
2021/01/08 00:28:03;;;;;;;48.30;34.40;;;;;;;-0.88;95.79;95623.09;1040891;28;20033;-43
2021/01/08 00:28:34;;;;;;;44.93;32.10;;;;;;;-0.90;95.97;95625.81;1040809;28;20027;-42
2021/01/08 00:29:05;;;;;;;45.57;33.80;;;;;;;-0.87;95.89;95625.53;1040750;28;20040;-42
2021/01/08 00:29:36;;;;;;;47.10;32.38;;;;;;;-0.82;94.73;95625.97;1040521;28;20508;-42
2021/01/08 00:30:07;;;;;;;45.47;32.53;;;;;;;-0.81;94.67;95626.78;1041023;28;20072;-41
2021/01/08 00:30:37;;;;;;;47.30;32.83;;;;;;;-0.87;94.97;95622.97;1040945;28;20021;-41
2021/01/08 00:31:08;;;;;;;45.77;32.47;;;;;;;-0.84;95.06;95627.03;1041062;28;20029;-46
2021/01/08 00:31:48;;;;;;;44.77;32.37;;;;;;;-0.84;95.38;95627.84;1041175;28;20017;-41
2021/01/08 00:32:19;;;;;;;42.35;30.63;;;;;;;-0.82;94.88;95625.97;1041029;28;20036;-43
2021/01/08 00:32:49;;;;;;;43.38;32.97;;;;;;;-0.88;94.72;95626.50;1041065;28;20462;-41
2021/01/08 00:33:20;;;;;;;45.50;32.93;;;;;;;-0.90;95.27;95624.06;1041030;28;20021;-42
2021/01/08 00:33:50;;;;;;;46.17;33.07;;;;;;;-0.85;95.12;95628.81;1041040;28;20344;-41
2021/01/08 00:34:21;;;;;;;43.53;31.73;;;;;;;-0.87;94.93;95625.53;1041149;28;20159;-41
2021/01/08 00:34:51;;;;;;;43.50;32.77;;;;;;;-0.88;94.79;95623.94;1041390;28;20033;-41
2021/01/08 00:35:22;;;;;;;47.67;31.60;;;;;;;-0.81;94.32;95630.16;1041015;28;20062;-41
2021/01/08 00:35:53;;;;;;;43.67;32.00;;;;;;;-0.82;94.36;95631.13;1041273;28;20024;-41
2021/01/08 00:36:23;;;;;;;45.30;32.58;;;;;;;-0.81;94.52;95630.16;1040798;28;20025;-40
2021/01/08 00:36:56;;;;;;;44.03;31.80;;;;;;;-0.79;94.66;95633.44;1040775;28;20033;-41
2021/01/08 00:37:26;;;;;;;44.65;31.67;;;;;;;-0.78;94.07;95627.31;1040666;28;20026;-40
2021/01/08 00:37:57;;;;;;;43.83;32.27;;;;;;;-0.82;94.62;95631.13;1040706;28;20034;-41
2021/01/08 00:38:27;;;;;;;41.80;31.47;;;;;;;-0.79;94.22;95630.88;1041450;28;20032;-41
2021/01/08 00:38:58;;;;;;;44.40;32.97;;;;;;;-0.77;94.31;95634.13;1040631;28;20378;-42
2021/01/08 00:39:29;;;;;;;42.93;31.53;;;;;;;-0.77;93.94;95628.13;1036718;28;20058;-42
2021/01/08 00:39:59;;;;;;;43.40;32.30;;;;;;;-0.78;94.08;95626.50;1036831;28;20080;-41
2021/01/08 00:40:30;;;;;;;42.13;30.63;;;;;;;-0.80;93.81;95629.22;1036747;28;20096;-41
2021/01/08 00:41:00;;;;;;;42.47;31.27;;;;;;;-0.80;94.19;95629.22;1040572;28;20548;-42
2021/01/08 00:41:33;;;;;;;45.27;31.93;;;;;;;-0.78;94.17;95629.09;1041452;28;20021;-43
2021/01/08 00:42:04;;;;;;;43.00;32.42;;;;;;;-0.82;94.28;95631.13;1041025;28;20100;-41
2021/01/08 00:42:35;;;;;;;43.13;31.93;;;;;;;-0.82;94.68;95633.72;1041071;28;20017;-41
2021/01/08 00:43:05;;;;;;;43.03;31.43;;;;;;;-0.81;94.23;95629.34;1040791;28;20485;-43
2021/01/08 00:43:36;;;;;;;44.63;31.90;;;;;;;-0.84;94.65;95629.63;1040904;28;20473;-42
2021/01/08 00:44:06;;;;;;;43.90;31.97;;;;;;;-0.85;94.67;95631.41;1040492;28;20025;-42
2021/01/08 00:44:37;;;;;;;46.67;32.40;;;;;;;-0.88;94.51;95631.69;1040666;28;20056;-41
2021/01/08 00:45:08;;;;;;;43.30;32.27;;;;;;;-0.91;94.51;95629.38;1041084;28;20025;-42
2021/01/08 00:45:38;;;;;;;44.85;32.65;;;;;;;-0.90;94.89;95630.97;1040977;28;20048;-41
2021/01/08 00:46:09;;;;;;;45.60;32.17;;;;;;;-0.93;94.98;95629.50;1041084;28;20029;-42
2021/01/08 00:46:40;;;;;;;46.77;34.23;;;;;;;-0.95;95.36;95630.59;1041058;28;20536;-43
2021/01/08 00:47:11;;;;;;;47.38;33.35;;;;;;;-0.95;95.09;95630.59;1040876;28;20025;-41
2021/01/08 00:47:41;;;;;;;43.53;30.20;;;;;;;-0.87;94.33;95629.91;1040771;28;20100;-41
2021/01/08 00:48:12;;;;;;;42.77;31.53;;;;;;;-0.84;94.17;95632.22;1040791;28;20496;-42
2021/01/08 00:48:43;;;;;;;43.73;31.40;;;;;;;-0.79;93.97;95635.19;1040844;28;20025;-41
2021/01/08 00:49:14;;;;;;;42.30;31.60;;;;;;;-0.80;94.03;95631.81;1040811;28;20022;-42
2021/01/08 00:49:44;;;;;;;41.13;31.40;;;;;;;-0.79;93.73;95630.88;1041080;28;20089;-42
2021/01/08 00:50:15;;;;;;;41.60;30.80;;;;;;;-0.78;93.98;95631.66;1041051;28;20574;-42
2021/01/08 00:50:46;;;;;;;39.85;30.17;;;;;;;-0.79;93.82;95628.28;1041082;28;20010;-41
2021/01/08 00:51:16;;;;;;;42.57;31.00;;;;;;;-0.87;94.29;95632.50;1040781;28;20014;-41
2021/01/08 00:51:47;;;;;;;44.33;33.07;;;;;;;-0.93;94.18;95626.09;1040786;28;20013;-41
2021/01/08 00:52:17;;;;;;;45.87;32.40;;;;;;;-0.90;94.67;95630.97;1040524;28;20041;-41
2021/01/08 00:52:48;;;;;;;44.17;32.93;;;;;;;-0.88;94.86;95628.25;1040351;28;20021;-41
2021/01/08 00:53:19;;;;;;;43.53;31.33;;;;;;;-0.82;94.53;95632.88;1041178;28;20010;-42
2021/01/08 00:53:49;;;;;;;44.00;31.33;;;;;;;-0.84;94.02;95624.47;1041250;28;20029;-40
2021/01/08 00:54:20;;;;;;;44.83;33.67;;;;;;;-0.91;94.52;95629.38;1041194;28;20005;-42
2021/01/08 00:54:51;;;;;;;43.50;31.50;;;;;;;-0.88;94.54;95626.50;1040983;28;20028;-41
2021/01/08 00:55:22;;;;;;;43.67;31.67;;;;;;;-0.89;94.50;95630.03;1040783;28;20096;-41
2021/01/08 00:55:52;;;;;;;43.43;32.37;;;;;;;-0.91;94.45;95639.72;1040864;28;20006;-41
2021/01/08 00:56:23;;;;;;;42.93;31.50;;;;;;;-0.88;94.94;95633.44;1040749;28;20024;-40
2021/01/08 00:56:53;;;;;;;46.73;32.33;;;;;;;-0.88;94.89;95633.44;1040859;28;20431;-41
2021/01/08 00:57:24;;;;;;;46.60;33.80;;;;;;;-0.88;95.27;95636.03;1040722;28;20016;-40
2021/01/08 00:57:55;;;;;;;45.07;33.27;;;;;;;-0.88;95.27;95631.69;1041065;28;20029;-41
2021/01/08 00:58:26;;;;;;;44.00;32.17;;;;;;;-0.92;95.14;95636.28;1036750;28;20017;-41
2021/01/08 00:58:57;;;;;;;42.30;31.60;;;;;;;-0.84;94.59;95633.03;1036301;28;20128;-41
2021/01/08 00:59:27;;;;;;;43.73;31.70;;;;;;;-0.80;94.00;95633.59;1036497;28;20029;-40
2021/01/08 00:59:58;;;;;;;41.87;31.10;;;;;;;-0.75;94.26;95639.97;1036858;28;20069;-40
2021/01/08 01:00:29;;;;;;;47.45;31.65;;;;;;;-0.74;93.74;95638.22;1040279;28;20421;-41
2021/01/08 01:00:59;;;;;;;44.50;31.70;;;;;;;-0.73;93.93;95642.41;1040801;28;20037;-41
2021/01/08 01:01:30;;;;;;;42.37;31.27;;;;;;;-0.75;93.87;95636.56;1040855;28;20010;-41
2021/01/08 01:02:00;;;;;;;45.30;32.90;;;;;;;-0.82;93.99;95633.72;1041102;28;20034;-41
2021/01/08 01:02:34;;;;;;;45.43;32.77;;;;;;;-0.82;94.38;95638.88;1041010;28;20018;-41
2021/01/08 01:03:04;;;;;;;40.20;30.35;;;;;;;-0.84;94.41;95642.56;1040932;28;20010;-41
2021/01/08 01:03:35;;;;;;;43.57;31.43;;;;;;;-0.77;93.81;95638.47;1041013;28;20021;-41
2021/01/08 01:04:06;;;;;;;43.23;31.30;;;;;;;-0.77;93.80;95635.91;1041106;28;20017;-41
2021/01/08 01:04:36;;;;;;;42.67;31.70;;;;;;;-0.79;93.77;95637.78;1040938;28;20017;-43
2021/01/08 01:05:08;;;;;;;41.77;30.80;;;;;;;-0.74;93.56;95639.00;1040763;28;20036;-41
2021/01/08 01:05:41;;;;;;;39.53;30.52;;;;;;;-0.78;93.57;95637.66;1041023;28;20378;-41
2021/01/08 01:06:11;;;;;;;45.33;33.22;;;;;;;-0.78;94.04;95636.84;1041006;28;20028;-41
2021/01/08 01:06:42;;;;;;;42.77;31.57;;;;;;;-0.79;94.06;95638.63;1036681;28;20014;-41
2021/01/08 01:07:12;;;;;;;38.83;29.90;;;;;;;-0.74;93.29;95636.44;1036707;28;20045;-41
2021/01/08 01:07:43;;;;;;;40.87;30.90;;;;;;;-0.75;93.72;95637.38;1036495;28;20104;-41
2021/01/08 01:08:13;;;;;;;42.53;31.70;;;;;;;-0.75;93.61;95641.72;1036851;28;20014;-41
2021/01/08 01:08:44;;;;;;;43.13;31.90;;;;;;;-0.76;93.34;95640.94;1040985;28;20041;-41
2021/01/08 01:09:14;;;;;;;41.77;30.53;;;;;;;-0.73;93.58;95629.47;1040857;28;20472;-41
2021/01/08 01:09:45;;;;;;;41.43;31.60;;;;;;;-0.78;93.67;95637.66;1041170;28;20069;-41
2021/01/08 01:10:16;;;;;;;43.53;32.27;;;;;;;-0.79;94.26;95636.03;1041008;28;20009;-41
2021/01/08 01:10:46;;;;;;;43.33;31.63;;;;;;;-0.82;94.22;95640.63;1041199;28;20279;-41
2021/01/08 01:11:18;;;;;;;44.07;32.07;;;;;;;-0.75;94.05;95642.53;1040433;28;20017;-42
2021/01/08 01:11:48;;;;;;;43.40;30.73;;;;;;;-0.79;93.98;95633.44;1040494;28;20024;-43
2021/01/08 01:12:18;;;;;;;47.37;34.00;;;;;;;-0.82;94.51;95636.31;1035893;28;20026;-41
2021/01/08 01:12:50;;;;;;;46.07;31.93;;;;;;;-0.80;94.61;95644.72;1036356;28;20025;-42
2021/01/08 01:13:21;;;;;;;46.22;32.85;;;;;;;-0.78;94.15;95642.00;1040771;28;20068;-41
2021/01/08 01:13:52;;;;;;;41.67;30.70;;;;;;;-0.72;93.31;95638.88;1040905;28;20152;-43
2021/01/08 01:14:22;;;;;;;43.35;31.63;;;;;;;-0.72;93.76;95644.03;1040862;28;20441;-42
2021/01/08 01:14:53;;;;;;;42.87;31.13;;;;;;;-0.72;93.62;95642.25;1040404;28;20097;-41
2021/01/08 01:15:24;;;;;;;44.22;31.85;;;;;;;-0.72;93.41;95644.03;1040581;28;20018;-42
2021/01/08 01:15:55;;;;;;;42.37;31.40;;;;;;;-0.70;93.32;95639.53;1040745;28;20085;-41
2021/01/08 01:16:26;;;;;;;44.03;30.67;;;;;;;-0.68;93.00;95640.25;1040942;28;20017;-41
2021/01/08 01:16:57;;;;;;;44.22;32.80;;;;;;;-0.72;93.42;95641.47;1041017;28;20474;-41
2021/01/08 01:17:27;;;;;;;43.70;32.33;;;;;;;-0.73;93.31;95645.00;1041155;28;20022;-42
2021/01/08 01:17:58;;;;;;;42.40;31.00;;;;;;;-0.72;92.77;95650.03;1041185;28;20024;-41
2021/01/08 01:18:28;;;;;;;45.17;32.13;;;;;;;-0.78;93.46;95642.00;1040839;28;20417;-41
2021/01/08 01:18:59;;;;;;;43.23;30.67;;;;;;;-0.83;93.32;95639.03;1040458;28;20013;-41
2021/01/08 01:19:29;;;;;;;44.73;32.40;;;;;;;-0.84;93.96;95648.53;1040563;28;20107;-41
2021/01/08 01:20:00;;;;;;;43.83;32.23;;;;;;;-0.82;94.52;95646.66;1040388;28;20017;-41
2021/01/08 01:20:30;;;;;;;44.93;32.10;;;;;;;-0.81;93.99;95644.88;1040813;28;20370;-41
2021/01/08 01:21:01;;;;;;;41.80;32.07;;;;;;;-0.80;93.82;95647.31;1040965;28;20025;-41
2021/01/08 01:21:31;;;;;;;42.63;30.97;;;;;;;-0.78;93.66;95650.56;1040593;28;20392;-47
2021/01/08 01:22:02;;;;;;;41.87;31.40;;;;;;;-0.72;93.39;95647.44;1040753;28;20018;-42
2021/01/08 01:22:32;;;;;;;44.17;31.63;;;;;;;-0.69;93.44;95650.72;1040637;28;20026;-41
2021/01/08 01:23:03;;;;;;;44.07;32.57;;;;;;;-0.73;93.15;95645.81;1040290;28;20020;-41
2021/01/08 01:23:34;;;;;;;42.67;31.57;;;;;;;-0.74;93.58;95648.53;1040377;28;20521;-41
2021/01/08 01:24:05;;;;;;;41.22;30.95;;;;;;;-0.78;93.24;95650.56;1040460;28;20020;-41
2021/01/08 01:24:36;;;;;;;43.05;32.08;;;;;;;-0.78;93.75;95650.56;1040630;28;20021;-41
2021/01/08 01:25:07;;;;;;;41.67;31.53;;;;;;;-0.76;93.19;95642.69;1040965;28;20462;-41
2021/01/08 01:25:37;;;;;;;41.85;31.30;;;;;;;-0.69;92.96;95653.31;1040153;28;20150;-41
2021/01/08 01:26:08;;;;;;;44.07;32.33;;;;;;;-0.74;93.19;95654.53;1040608;28;20025;-41
2021/01/08 01:26:42;;;;;;;40.27;30.10;;;;;;;-0.70;92.95;95654.25;1040627;28;20021;-41
2021/01/08 01:27:12;;;;;;;44.88;31.75;;;;;;;-0.78;92.81;95647.97;1040616;28;20013;-40
2021/01/08 01:27:43;;;;;;;46.63;32.80;;;;;;;-0.80;93.13;95649.91;1040906;28;20065;-41
2021/01/08 01:28:13;;;;;;;42.20;31.27;;;;;;;-0.77;93.57;95651.41;1040884;28;20047;-41
2021/01/08 01:28:44;;;;;;;45.93;33.67;;;;;;;-0.77;93.97;95652.22;1040676;28;20093;-41
2021/01/08 01:29:14;;;;;;;43.63;32.43;;;;;;;-0.78;93.65;95655.75;1040495;28;20013;-40
2021/01/08 01:29:45;;;;;;;44.43;33.50;;;;;;;-0.80;93.83;95644.72;1040366;28;20025;-40
2021/01/08 01:30:15;;;;;;;44.10;31.63;;;;;;;-0.79;93.64;95659.31;1040709;28;20052;-41
2021/01/08 01:30:46;;;;;;;42.27;32.00;;;;;;;-0.77;93.43;95659.97;1040687;28;20021;-41
2021/01/08 01:31:17;;;;;;;46.63;33.80;;;;;;;-0.78;93.52;95655.75;1040230;28;20052;-40
2021/01/08 01:31:47;;;;;;;41.97;31.60;;;;;;;-0.82;93.82;95650.97;1040506;28;20021;-41
2021/01/08 01:32:18;;;;;;;42.30;31.40;;;;;;;-0.82;94.16;95656.16;1040858;28;20045;-41
2021/01/08 01:32:48;;;;;;;42.83;31.77;;;;;;;-0.76;93.70;95658.19;1040574;28;20059;-42
2021/01/08 01:33:18;;;;;;;42.53;31.27;;;;;;;-0.71;93.11;95661.19;1041125;28;20024;-41
2021/01/08 01:33:49;;;;;;;40.00;29.80;;;;;;;-0.68;93.25;95660.09;1040711;28;20017;-41
2021/01/08 01:34:19;;;;;;;42.47;30.33;;;;;;;-0.70;92.89;95655.06;1040662;28;20013;-41
2021/01/08 01:34:50;;;;;;;41.13;30.83;;;;;;;-0.69;92.46;95656.69;1040641;28;20029;-41
2021/01/08 01:35:20;;;;;;;42.27;29.93;;;;;;;-0.74;93.19;95657.09;1040320;28;20100;-41
2021/01/08 01:35:51;;;;;;;44.27;31.90;;;;;;;-0.80;93.67;95655.06;1036250;28;20458;-41
2021/01/08 01:36:22;;;;;;;43.67;32.33;;;;;;;-0.89;93.79;95658.47;1036713;28;20439;-40
2021/01/08 01:36:52;;;;;;;43.10;32.50;;;;;;;-0.81;93.61;95653.44;1036112;28;20021;-41
2021/01/08 01:37:23;;;;;;;41.77;31.63;;;;;;;-0.81;93.36;95652.63;1036643;28;20041;-41
2021/01/08 01:37:53;;;;;;;44.07;32.43;;;;;;;-0.84;93.32;95652.91;1040571;28;20064;-40
2021/01/08 01:38:24;;;;;;;43.03;31.77;;;;;;;-0.85;93.68;95652.09;1040528;28;20106;-41
2021/01/08 01:38:54;;;;;;;46.67;33.10;;;;;;;-0.86;93.57;95654.81;1040877;28;20101;-42
2021/01/08 01:39:25;;;;;;;43.97;31.77;;;;;;;-0.84;93.61;95650.31;1040648;28;20021;-42
2021/01/08 01:39:55;;;;;;;45.63;33.13;;;;;;;-0.83;93.45;95655.34;1040800;28;20020;-42
2021/01/08 01:40:26;;;;;;;42.00;31.27;;;;;;;-0.79;93.55;95650.72;1040925;28;20075;-40
2021/01/08 01:40:56;;;;;;;41.57;30.70;;;;;;;-0.80;93.40;95647.31;1041110;28;20067;-42
2021/01/08 01:41:27;;;;;;;43.80;31.67;;;;;;;-0.76;93.20;95647.84;1040817;28;20028;-41
2021/01/08 01:41:57;;;;;;;44.77;32.50;;;;;;;-0.80;93.51;95655.06;1040942;28;20067;-43
2021/01/08 01:42:28;;;;;;;44.17;31.43;;;;;;;-0.80;93.59;95654.25;1041123;28;20059;-43
2021/01/08 01:42:59;;;;;;;41.73;30.53;;;;;;;-0.78;93.31;95647.97;1040158;28;20024;-43
2021/01/08 01:43:29;;;;;;;40.97;30.53;;;;;;;-0.87;93.72;95656.56;1040468;28;20517;-41
2021/01/08 01:44:00;;;;;;;40.97;31.47;;;;;;;-0.87;93.84;95655.75;1040369;28;20375;-41
2021/01/08 01:44:30;;;;;;;44.03;32.97;;;;;;;-0.86;93.94;95658.19;1040275;28;20372;-41
2021/01/08 01:45:01;;;;;;;41.77;31.30;;;;;;;-0.82;94.07;95651.81;1040537;28;20414;-41
2021/01/08 01:45:31;;;;;;;44.53;31.40;;;;;;;-0.83;93.76;95649.38;1040896;28;20055;-41
2021/01/08 01:46:02;;;;;;;48.03;33.93;;;;;;;-0.87;93.89;95659.16;1040685;28;20031;-41
2021/01/08 01:46:33;;;;;;;47.28;32.55;;;;;;;-0.90;93.78;95655.09;1040674;28;20104;-40
2021/01/08 01:47:03;;;;;;;44.57;32.53;;;;;;;-0.85;93.60;95649.50;1040210;28;20064;-41
2021/01/08 01:47:34;;;;;;;44.77;32.63;;;;;;;-0.82;93.51;95659.56;1036411;28;20109;-41
2021/01/08 01:48:05;;;;;;;43.17;33.00;;;;;;;-0.83;93.67;95657.94;1036165;28;20026;-41
2021/01/08 01:48:36;;;;;;;43.40;32.78;;;;;;;-0.81;93.87;95648.25;1036556;28;20079;-41
2021/01/08 01:49:06;;;;;;;45.00;32.83;;;;;;;-0.79;93.99;95655.88;1036251;28;20025;-41
2021/01/08 01:49:37;;;;;;;44.77;32.63;;;;;;;-0.83;93.71;95655.34;1036258;28;20022;-42
2021/01/08 01:50:08;;;;;;;43.03;31.53;;;;;;;-0.78;93.78;95657.53;1036230;28;20108;-41
2021/01/08 01:50:38;;;;;;;43.30;31.00;;;;;;;-0.77;93.65;95654.78;1036817;28;20417;-43
2021/01/08 01:51:09;;;;;;;42.27;31.03;;;;;;;-0.80;93.27;95652.50;1040478;28;20136;-40
2021/01/08 01:51:39;;;;;;;45.33;31.40;;;;;;;-0.81;93.29;95653.44;1040607;28;20013;-41
2021/01/08 01:52:10;;;;;;;42.43;30.60;;;;;;;-0.80;93.40;95655.06;1032137;28;20010;-42
2021/01/08 01:52:40;;;;;;;44.07;32.63;;;;;;;-0.80;93.54;95651.69;1032282;28;20056;-42
2021/01/08 01:53:11;;;;;;;41.93;31.43;;;;;;;-0.82;93.49;95653.56;1023898;29;20023;-41
2021/01/08 01:53:41;;;;;;;46.73;33.53;;;;;;;-0.86;93.71;95652.22;1020233;28;20102;-42
2021/01/08 01:54:12;;;;;;;41.17;29.57;;;;;;;-0.84;93.49;95652.91;1028079;28;20023;-43
2021/01/08 01:54:43;;;;;;;45.50;31.83;;;;;;;-0.82;93.84;95649.22;1028378;28;20011;-42
2021/01/08 01:55:13;;;;;;;44.08;32.53;;;;;;;-0.80;93.43;95649.09;1036207;28;20052;-43
2021/01/08 01:55:44;;;;;;;41.17;30.60;;;;;;;-0.78;93.50;95652.34;1039972;28;20052;-42
2021/01/08 01:56:15;;;;;;;42.97;32.03;;;;;;;-0.78;93.24;95653.16;1039962;28;20048;-41
2021/01/08 01:56:45;;;;;;;42.87;31.13;;;;;;;-0.79;93.43;95658.47;1040332;28;20044;-41
2021/01/08 01:57:16;;;;;;;45.30;32.53;;;;;;;-0.83;93.61;95659.72;1040234;28;20064;-41
2021/01/08 01:57:46;;;;;;;46.50;33.23;;;;;;;-0.92;94.03;95653.56;1036349;28;20021;-42
2021/01/08 01:58:17;;;;;;;43.07;32.37;;;;;;;-0.94;93.86;95655.47;1036164;28;20067;-40
2021/01/08 01:58:47;;;;;;;43.93;32.93;;;;;;;-0.94;94.44;95653.72;1032111;28;20017;-42
2021/01/08 01:59:18;;;;;;;44.33;31.37;;;;;;;-0.91;94.47;95658.59;1032146;28;20018;-41
2021/01/08 01:59:48;;;;;;;43.13;32.17;;;;;;;-0.92;94.07;95656.16;1036297;28;20105;-41
2021/01/08 02:00:19;;;;;;;43.33;31.70;;;;;;;-0.90;94.27;95662.00;1040377;28;20029;-42
2021/01/08 02:00:50;;;;;;;45.97;33.08;;;;;;;-0.95;94.69;95661.59;1040889;28;20032;-42
2021/01/08 02:01:20;;;;;;;41.87;32.07;;;;;;;-0.92;94.66;95656.97;1040654;28;20372;-42
2021/01/08 02:01:51;;;;;;;44.03;32.73;;;;;;;-0.88;94.30;95654.09;1040275;28;20048;-42
2021/01/08 02:03:13;;;;;;;44.50;32.60;;;;;;;-0.89;94.50;95655.88;1036345;28;20049;-41
2021/01/08 02:03:50;;;;;;;42.00;30.05;;;;;;;-0.86;93.91;95654.81;1043365;28;20059;-41
2021/01/08 02:04:21;;;;;;;41.13;29.42;;;;;;;-0.90;93.97;95655.09;1044170;28;20438;-42
2021/01/08 02:04:52;;;;;;;43.90;31.77;;;;;;;-0.93;94.70;95662.28;1035928;28;20064;-41
2021/01/08 02:05:22;;;;;;;41.85;31.70;;;;;;;-0.92;94.07;95653.56;1035947;28;20495;-41
2021/01/08 02:05:55;;;;;;;41.53;29.77;;;;;;;-0.86;93.91;95659.97;1036117;28;20026;-42
2021/01/08 02:06:32;;;;;;;42.13;29.65;;;;;;;-0.85;93.83;95657.25;1036206;28;20044;-42
2021/01/08 02:07:02;;;;;;;42.00;30.30;;;;;;;-0.85;93.47;95657.25;1034713;28;20054;-41
2021/01/08 02:07:46;;;;;;;40.83;30.10;;;;;;;-0.86;93.54;95652.22;1033306;28;20030;-41
2021/01/08 02:08:21;;;;;;;40.95;29.35;;;;;;;-0.89;93.48;95658.47;1038574;28;20048;-43
2021/01/08 02:09:00;;;;;;;41.15;28.95;;;;;;;-0.94;93.93;95652.88;1038525;28;20030;-41
2021/01/08 02:09:30;;;;;;;39.53;28.77;;;;;;;-0.97;93.83;95658.31;1031797;28;20109;-41
2021/01/08 02:10:03;;;;;;;37.57;26.30;;;;;;;-0.89;93.60;95655.88;1027908;28;20026;-41
2021/01/08 02:10:37;;;;;;;41.00;29.25;;;;;;;-0.90;93.52;95654.25;1025348;28;20077;-41
2021/01/08 02:11:12;;;;;;;38.50;28.73;;;;;;;-0.87;93.24;95664.31;1028853;28;20120;-41
2021/01/08 02:11:44;;;;;;;42.05;28.98;;;;;;;-0.89;93.04;95655.88;1033613;28;20085;-41
2021/01/08 02:12:14;;;;;;;41.88;29.75;;;;;;;-0.97;93.95;95660.91;1029414;28;20121;-41
2021/01/08 02:12:45;;;;;;;38.63;29.40;;;;;;;-0.93;93.81;95654.53;1028045;28;20399;-41
2021/01/08 02:13:44;;;;;;;39.97;30.60;;;;;;;-0.95;93.99;95654.66;1028435;28;20361;-41
2021/01/08 02:14:17;;;;;;;40.90;28.95;;;;;;;-0.98;93.81;95656.69;1031177;28;20521;-41
2021/01/08 02:14:48;;;;;;;43.25;30.05;;;;;;;-0.98;94.55;95656.69;1040421;28;20028;-41
2021/01/08 02:15:19;;;;;;;38.57;29.07;;;;;;;-0.97;94.09;95653.16;1036112;28;20493;-41
2021/01/08 02:15:50;;;;;;;40.60;28.67;;;;;;;-0.96;93.86;95657.38;1036075;28;20037;-41
2021/01/08 02:16:20;;;;;;;37.63;28.13;;;;;;;-0.95;93.45;95659.81;1035971;28;20084;-41
2021/01/08 02:16:51;;;;;;;39.03;28.70;;;;;;;-1.02;94.07;95657.91;1036282;28;20596;-41
2021/01/08 02:17:22;;;;;;;37.43;28.17;;;;;;;-1.07;94.21;95659.13;1036042;28;20025;-42
2021/01/08 02:17:52;;;;;;;41.43;30.80;;;;;;;-1.09;94.32;95663.63;1028153;28;20423;-41
2021/01/08 02:18:23;;;;;;;42.50;29.60;;;;;;;-1.09;94.31;95663.63;1032123;28;20022;-41
2021/01/08 02:18:53;;;;;;;39.50;29.43;;;;;;;-1.08;94.86;95667.00;1032199;28;20025;-42
2021/01/08 02:19:45;;;;;;;37.27;28.50;;;;;;;-1.05;94.09;95661.56;1036317;28;20038;-41
2021/01/08 02:20:15;;;;;;;42.50;29.15;;;;;;;-0.98;94.27;95660.09;1036109;28;20026;-42
2021/01/08 02:20:46;;;;;;;37.33;27.63;;;;;;;-0.98;93.85;95665.25;1036261;28;20368;-40
2021/01/08 02:21:19;;;;;;;38.70;28.30;;;;;;;-0.94;93.40;95660.63;1030955;28;20066;-41
2021/01/08 02:21:52;;;;;;;39.70;28.80;;;;;;;-0.93;93.37;95657.09;1028308;28;20014;-41
2021/01/08 02:22:27;;;;;;;39.20;28.65;;;;;;;-0.90;93.47;95662.00;1028154;28;20018;-42
2021/01/08 02:23:12;;;;;;;36.83;27.90;;;;;;;-0.87;93.18;95660.91;1036238;28;20066;-42
2021/01/08 02:23:47;;;;;;;39.35;27.67;;;;;;;-0.85;92.84;95659.00;1028198;28;20092;-41
2021/01/08 02:24:25;;;;;;;36.67;27.52;;;;;;;-0.82;92.76;95663.91;1031389;28;20030;-41
2021/01/08 02:25:15;;;;;;;38.97;27.45;;;;;;;-0.91;93.03;95663.78;1031868;28;20074;-41